sensor_id;sensor_type;location;lat;lon;timestamp;temperature;humidity
51863;DHT22;37900;52.996;6.278;2023-11-22T00:01:49;16.50;98.40
51863;DHT22;37900;52.996;6.278;2023-11-22T00:04:15;16.50;98.40
51863;DHT22;37900;52.996;6.278;2023-11-22T00:06:40;16.50;98.40
51863;DHT22;37900;52.996;6.278;2023-11-22T00:09:06;16.50;98.40
51863;DHT22;37900;52.996;6.278;2023-11-22T00:11:32;16.50;98.30
51863;DHT22;37900;52.996;6.278;2023-11-22T00:13:58;16.50;98.30
51863;DHT22;37900;52.996;6.278;2023-11-22T00:16:23;16.50;98.30
51863;DHT22;37900;52.996;6.278;2023-11-22T00:18:49;16.50;98.30
51863;DHT22;37900;52.996;6.278;2023-11-22T00:21:15;16.50;98.30
51863;DHT22;37900;52.996;6.278;2023-11-22T00:23:40;16.50;98.30
51863;DHT22;37900;52.996;6.278;2023-11-22T00:26:06;16.40;98.20
51863;DHT22;37900;52.996;6.278;2023-11-22T00:28:32;16.50;98.20
51863;DHT22;37900;52.996;6.278;2023-11-22T00:30:57;16.40;98.20
51863;DHT22;37900;52.996;6.278;2023-11-22T00:33:23;16.40;98.10
51863;DHT22;37900;52.996;6.278;2023-11-22T00:35:49;16.40;98.10
51863;DHT22;37900;52.996;6.278;2023-11-22T00:38:15;16.40;98.10
51863;DHT22;37900;52.996;6.278;2023-11-22T00:40:41;16.40;98.10
51863;DHT22;37900;52.996;6.278;2023-11-22T00:43:07;16.40;98.10
51863;DHT22;37900;52.996;6.278;2023-11-22T00:45:33;16.40;98.10
51863;DHT22;37900;52.996;6.278;2023-11-22T00:48:00;16.40;98.30
51863;DHT22;37900;52.996;6.278;2023-11-22T00:50:26;16.40;98.00
51863;DHT22;37900;52.996;6.278;2023-11-22T00:52:51;16.40;98.00
51863;DHT22;37900;52.996;6.278;2023-11-22T00:55:17;16.40;97.90
51863;DHT22;37900;52.996;6.278;2023-11-22T00:57:43;16.40;97.90
51863;DHT22;37900;52.996;6.278;2023-11-22T01:00:09;16.40;97.90
51863;DHT22;37900;52.996;6.278;2023-11-22T01:02:36;16.40;97.90
51863;DHT22;37900;52.996;6.278;2023-11-22T01:05:09;16.40;97.80
51863;DHT22;37900;52.996;6.278;2023-11-22T01:07:36;16.30;97.80
51863;DHT22;37900;52.996;6.278;2023-11-22T01:10:02;16.40;97.80
51863;DHT22;37900;52.996;6.278;2023-11-22T01:12:28;16.30;97.80
51863;DHT22;37900;52.996;6.278;2023-11-22T01:14:53;16.30;97.80
51863;DHT22;37900;52.996;6.278;2023-11-22T01:17:19;16.30;97.70
51863;DHT22;37900;52.996;6.278;2023-11-22T01:19:44;16.30;97.70
51863;DHT22;37900;52.996;6.278;2023-11-22T01:22:10;16.30;97.70
51863;DHT22;37900;52.996;6.278;2023-11-22T01:24:35;16.30;97.70
51863;DHT22;37900;52.996;6.278;2023-11-22T01:27:03;16.30;97.60
51863;DHT22;37900;52.996;6.278;2023-11-22T01:29:28;16.30;97.60
51863;DHT22;37900;52.996;6.278;2023-11-22T01:31:54;16.30;97.60
51863;DHT22;37900;52.996;6.278;2023-11-22T01:34:20;15.60;97.40
51863;DHT22;37900;52.996;6.278;2023-11-22T01:36:46;16.30;97.60
51863;DHT22;37900;52.996;6.278;2023-11-22T01:39:14;16.30;97.50
51863;DHT22;37900;52.996;6.278;2023-11-22T01:41:40;16.30;97.50
51863;DHT22;37900;52.996;6.278;2023-11-22T01:44:07;16.30;97.70
51863;DHT22;37900;52.996;6.278;2023-11-22T01:46:33;16.30;97.50
51863;DHT22;37900;52.996;6.278;2023-11-22T01:48:59;16.30;97.40
51863;DHT22;37900;52.996;6.278;2023-11-22T01:51:25;16.30;97.40
51863;DHT22;37900;52.996;6.278;2023-11-22T01:53:51;16.30;97.40
51863;DHT22;37900;52.996;6.278;2023-11-22T01:56:21;16.20;97.40
51863;DHT22;37900;52.996;6.278;2023-11-22T01:58:48;16.20;97.30
51863;DHT22;37900;52.996;6.278;2023-11-22T02:01:14;16.20;97.30
51863;DHT22;37900;52.996;6.278;2023-11-22T02:03:40;16.20;97.30
51863;DHT22;37900;52.996;6.278;2023-11-22T02:06:06;16.30;97.30
51863;DHT22;37900;52.996;6.278;2023-11-22T02:08:32;16.20;97.20
51863;DHT22;37900;52.996;6.278;2023-11-22T02:10:58;16.20;97.20
51863;DHT22;37900;52.996;6.278;2023-11-22T02:13:24;16.20;97.20
51863;DHT22;37900;52.996;6.278;2023-11-22T02:15:49;16.20;97.20
51863;DHT22;37900;52.996;6.278;2023-11-22T02:18:15;16.20;97.20
51863;DHT22;37900;52.996;6.278;2023-11-22T02:20:41;16.20;97.10
51863;DHT22;37900;52.996;6.278;2023-11-22T02:23:08;16.20;97.10
51863;DHT22;37900;52.996;6.278;2023-11-22T02:25:36;16.20;97.10
51863;DHT22;37900;52.996;6.278;2023-11-22T02:28:02;16.10;97.10
51863;DHT22;37900;52.996;6.278;2023-11-22T02:30:28;16.20;97.10
51863;DHT22;37900;52.996;6.278;2023-11-22T02:32:53;16.10;97.00
51863;DHT22;37900;52.996;6.278;2023-11-22T02:35:19;16.10;97.00
51863;DHT22;37900;52.996;6.278;2023-11-22T02:37:45;16.10;97.00
51863;DHT22;37900;52.996;6.278;2023-11-22T02:40:20;16.10;96.90
51863;DHT22;37900;52.996;6.278;2023-11-22T02:42:46;16.10;96.90
51863;DHT22;37900;52.996;6.278;2023-11-22T02:45:13;16.10;96.90
51863;DHT22;37900;52.996;6.278;2023-11-22T02:47:39;16.10;96.90
51863;DHT22;37900;52.996;6.278;2023-11-22T02:50:06;16.10;97.10
51863;DHT22;37900;52.996;6.278;2023-11-22T02:52:31;16.10;96.80
51863;DHT22;37900;52.996;6.278;2023-11-22T02:54:57;16.10;96.80
51863;DHT22;37900;52.996;6.278;2023-11-22T02:57:23;16.10;96.80
51863;DHT22;37900;52.996;6.278;2023-11-22T02:59:49;16.10;96.80
51863;DHT22;37900;52.996;6.278;2023-11-22T03:02:15;16.10;96.80
51863;DHT22;37900;52.996;6.278;2023-11-22T03:04:42;16.10;96.70
51863;DHT22;37900;52.996;6.278;2023-11-22T03:07:09;15.60;96.60
51863;DHT22;37900;52.996;6.278;2023-11-22T03:09:35;16.10;96.70
51863;DHT22;37900;52.996;6.278;2023-11-22T03:12:02;16.10;96.70
51863;DHT22;37900;52.996;6.278;2023-11-22T03:14:28;16.00;96.60
51863;DHT22;37900;52.996;6.278;2023-11-22T03:16:54;16.00;96.60
51863;DHT22;37900;52.996;6.278;2023-11-22T03:19:20;16.00;96.60
51863;DHT22;37900;52.996;6.278;2023-11-22T03:21:46;16.00;96.60
51863;DHT22;37900;52.996;6.278;2023-11-22T03:24:11;16.00;96.50
51863;DHT22;37900;52.996;6.278;2023-11-22T03:26:37;16.00;96.50
51863;DHT22;37900;52.996;6.278;2023-11-22T03:29:02;16.00;96.50
51863;DHT22;37900;52.996;6.278;2023-11-22T03:31:28;16.00;96.50
51863;DHT22;37900;52.996;6.278;2023-11-22T03:33:54;16.00;96.50
51863;DHT22;37900;52.996;6.278;2023-11-22T03:36:20;16.00;96.40
51863;DHT22;37900;52.996;6.278;2023-11-22T03:38:46;16.00;96.40
51863;DHT22;37900;52.996;6.278;2023-11-22T03:41:11;16.00;96.40
51863;DHT22;37900;52.996;6.278;2023-11-22T03:43:37;16.00;96.60
51863;DHT22;37900;52.996;6.278;2023-11-22T03:46:03;16.00;96.30
51863;DHT22;37900;52.996;6.278;2023-11-22T03:48:28;16.00;96.30
51863;DHT22;37900;52.996;6.278;2023-11-22T03:50:54;16.00;96.30
51863;DHT22;37900;52.996;6.278;2023-11-22T03:53:20;15.90;96.30
51863;DHT22;37900;52.996;6.278;2023-11-22T03:55:48;16.00;96.30
51863;DHT22;37900;52.996;6.278;2023-11-22T03:58:15;15.90;96.20
51863;DHT22;37900;52.996;6.278;2023-11-22T04:00:41;15.90;96.20
51863;DHT22;37900;52.996;6.278;2023-11-22T04:03:06;15.90;96.20
51863;DHT22;37900;52.996;6.278;2023-11-22T04:05:32;15.90;96.20
51863;DHT22;37900;52.996;6.278;2023-11-22T04:07:58;15.90;96.20
51863;DHT22;37900;52.996;6.278;2023-11-22T04:10:23;15.90;96.10
51863;DHT22;37900;52.996;6.278;2023-11-22T04:12:49;15.90;96.10
51863;DHT22;37900;52.996;6.278;2023-11-22T04:15:15;15.90;96.10
51863;DHT22;37900;52.996;6.278;2023-11-22T04:17:41;15.90;96.10
51863;DHT22;37900;52.996;6.278;2023-11-22T04:20:06;15.90;96.10
51863;DHT22;37900;52.996;6.278;2023-11-22T04:22:39;15.90;96.00
51863;DHT22;37900;52.996;6.278;2023-11-22T04:25:05;15.90;96.00
51863;DHT22;37900;52.996;6.278;2023-11-22T04:27:31;15.90;96.00
51863;DHT22;37900;52.996;6.278;2023-11-22T04:29:57;15.90;96.00
51863;DHT22;37900;52.996;6.278;2023-11-22T04:32:23;15.90;96.00
51863;DHT22;37900;52.996;6.278;2023-11-22T04:34:49;15.90;95.90
51863;DHT22;37900;52.996;6.278;2023-11-22T04:37:14;15.80;95.90
51863;DHT22;37900;52.996;6.278;2023-11-22T04:39:40;15.80;95.90
51863;DHT22;37900;52.996;6.278;2023-11-22T04:42:05;15.80;95.90
51863;DHT22;37900;52.996;6.278;2023-11-22T04:44:31;15.80;95.90
51863;DHT22;37900;52.996;6.278;2023-11-22T04:46:57;15.80;95.90
51863;DHT22;37900;52.996;6.278;2023-11-22T04:49:25;15.80;95.80
51863;DHT22;37900;52.996;6.278;2023-11-22T04:51:50;15.80;95.80
51863;DHT22;37900;52.996;6.278;2023-11-22T04:54:16;15.80;95.80
51863;DHT22;37900;52.996;6.278;2023-11-22T04:56:42;15.80;95.80
51863;DHT22;37900;52.996;6.278;2023-11-22T04:59:08;15.80;95.80
51863;DHT22;37900;52.996;6.278;2023-11-22T05:01:34;15.80;95.80
51863;DHT22;37900;52.996;6.278;2023-11-22T05:03:59;15.80;95.70
51863;DHT22;37900;52.996;6.278;2023-11-22T05:06:25;15.80;95.70
51863;DHT22;37900;52.996;6.278;2023-11-22T05:08:52;15.80;95.70
51863;DHT22;37900;52.996;6.278;2023-11-22T05:11:18;15.80;95.70
51863;DHT22;37900;52.996;6.278;2023-11-22T05:13:43;15.70;95.60
51863;DHT22;37900;52.996;6.278;2023-11-22T05:16:09;15.80;95.60
51863;DHT22;37900;52.996;6.278;2023-11-22T05:18:35;15.70;95.60
51863;DHT22;37900;52.996;6.278;2023-11-22T05:21:01;15.70;95.60
51863;DHT22;37900;52.996;6.278;2023-11-22T05:23:28;15.70;95.60
51863;DHT22;37900;52.996;6.278;2023-11-22T05:25:54;15.70;95.60
51863;DHT22;37900;52.996;6.278;2023-11-22T05:28:19;15.70;95.50
51863;DHT22;37900;52.996;6.278;2023-11-22T05:30:45;15.70;95.50
51863;DHT22;37900;52.996;6.278;2023-11-22T05:33:11;15.70;95.50
51863;DHT22;37900;52.996;6.278;2023-11-22T05:35:37;15.70;95.50
51863;DHT22;37900;52.996;6.278;2023-11-22T05:38:02;15.70;95.50
51863;DHT22;37900;52.996;6.278;2023-11-22T05:40:28;15.70;95.50
51863;DHT22;37900;52.996;6.278;2023-11-22T05:42:53;15.70;95.50
51863;DHT22;37900;52.996;6.278;2023-11-22T05:45:19;15.70;95.40
51863;DHT22;37900;52.996;6.278;2023-11-22T05:47:44;15.70;95.40
51863;DHT22;37900;52.996;6.278;2023-11-22T05:50:10;15.70;95.40
51863;DHT22;37900;52.996;6.278;2023-11-22T05:52:36;14.50;95.10
51863;DHT22;37900;52.996;6.278;2023-11-22T05:55:01;15.60;95.40
51863;DHT22;37900;52.996;6.278;2023-11-22T05:57:29;15.60;95.30
51863;DHT22;37900;52.996;6.278;2023-11-22T05:59:56;15.60;95.30
51863;DHT22;37900;52.996;6.278;2023-11-22T06:02:21;15.60;95.30
51863;DHT22;37900;52.996;6.278;2023-11-22T06:04:47;15.60;95.30
51863;DHT22;37900;52.996;6.278;2023-11-22T06:07:12;15.60;95.20
51863;DHT22;37900;52.996;6.278;2023-11-22T06:09:38;15.60;95.20
51863;DHT22;37900;52.996;6.278;2023-11-22T06:12:04;15.60;95.20
51863;DHT22;37900;52.996;6.278;2023-11-22T06:14:29;15.60;95.20
51863;DHT22;37900;52.996;6.278;2023-11-22T06:16:55;15.60;95.20
51863;DHT22;37900;52.996;6.278;2023-11-22T06:19:20;15.60;95.20
51863;DHT22;37900;52.996;6.278;2023-11-22T06:21:46;15.60;95.20
51863;DHT22;37900;52.996;6.278;2023-11-22T06:24:11;15.60;95.20
51863;DHT22;37900;52.996;6.278;2023-11-22T06:26:44;15.60;95.20
51863;DHT22;37900;52.996;6.278;2023-11-22T06:29:11;15.60;95.20
51863;DHT22;37900;52.996;6.278;2023-11-22T06:31:37;15.60;95.10
51863;DHT22;37900;52.996;6.278;2023-11-22T06:34:02;15.60;95.10
51863;DHT22;37900;52.996;6.278;2023-11-22T06:36:28;15.60;95.10
51863;DHT22;37900;52.996;6.278;2023-11-22T06:38:55;15.60;95.10
51863;DHT22;37900;52.996;6.278;2023-11-22T06:41:20;15.60;95.10
51863;DHT22;37900;52.996;6.278;2023-11-22T06:43:49;15.50;95.10
51863;DHT22;37900;52.996;6.278;2023-11-22T06:46:15;15.50;95.00
51863;DHT22;37900;52.996;6.278;2023-11-22T06:48:44;15.50;95.00
51863;DHT22;37900;52.996;6.278;2023-11-22T06:51:09;15.50;95.00
51863;DHT22;37900;52.996;6.278;2023-11-22T06:53:35;15.50;95.00
51863;DHT22;37900;52.996;6.278;2023-11-22T06:56:01;15.50;95.00
51863;DHT22;37900;52.996;6.278;2023-11-22T06:58:26;15.50;95.00
51863;DHT22;37900;52.996;6.278;2023-11-22T07:00:52;15.50;94.90
51863;DHT22;37900;52.996;6.278;2023-11-22T07:03:18;15.50;94.90
51863;DHT22;37900;52.996;6.278;2023-11-22T07:05:44;15.50;94.90
51863;DHT22;37900;52.996;6.278;2023-11-22T07:08:09;15.50;94.90
51863;DHT22;37900;52.996;6.278;2023-11-22T07:10:36;15.50;94.90
51863;DHT22;37900;52.996;6.278;2023-11-22T07:13:02;15.50;94.90
51863;DHT22;37900;52.996;6.278;2023-11-22T07:15:27;15.50;94.90
51863;DHT22;37900;52.996;6.278;2023-11-22T07:17:53;15.50;94.90
51863;DHT22;37900;52.996;6.278;2023-11-22T07:20:19;15.50;94.80
51863;DHT22;37900;52.996;6.278;2023-11-22T07:22:45;15.40;94.80
51863;DHT22;37900;52.996;6.278;2023-11-22T07:25:11;15.40;94.80
51863;DHT22;37900;52.996;6.278;2023-11-22T07:27:50;15.40;94.80
51863;DHT22;37900;52.996;6.278;2023-11-22T07:30:16;15.40;94.80
51863;DHT22;37900;52.996;6.278;2023-11-22T07:32:44;15.40;94.70
51863;DHT22;37900;52.996;6.278;2023-11-22T07:35:10;15.40;94.70
51863;DHT22;37900;52.996;6.278;2023-11-22T07:37:37;15.40;94.70
51863;DHT22;37900;52.996;6.278;2023-11-22T07:40:08;15.40;94.70
51863;DHT22;37900;52.996;6.278;2023-11-22T07:42:34;15.40;94.70
51863;DHT22;37900;52.996;6.278;2023-11-22T07:45:00;15.40;94.70
51863;DHT22;37900;52.996;6.278;2023-11-22T07:47:27;14.80;94.60
51863;DHT22;37900;52.996;6.278;2023-11-22T07:49:53;15.40;94.70
51863;DHT22;37900;52.996;6.278;2023-11-22T07:52:21;15.40;94.70
51863;DHT22;37900;52.996;6.278;2023-11-22T07:54:46;15.40;94.70
51863;DHT22;37900;52.996;6.278;2023-11-22T07:57:13;15.40;94.60
51863;DHT22;37900;52.996;6.278;2023-11-22T07:59:38;15.40;94.70
51863;DHT22;37900;52.996;6.278;2023-11-22T08:02:04;15.30;94.60
51863;DHT22;37900;52.996;6.278;2023-11-22T08:04:33;15.40;94.60
51863;DHT22;37900;52.996;6.278;2023-11-22T08:06:58;15.30;94.60
51863;DHT22;37900;52.996;6.278;2023-11-22T08:09:24;15.40;94.60
51863;DHT22;37900;52.996;6.278;2023-11-22T08:11:50;15.30;94.50
51863;DHT22;37900;52.996;6.278;2023-11-22T08:14:15;15.30;94.60
51863;DHT22;37900;52.996;6.278;2023-11-22T08:16:41;15.30;94.50
51863;DHT22;37900;52.996;6.278;2023-11-22T08:19:11;15.30;94.50
51863;DHT22;37900;52.996;6.278;2023-11-22T08:21:37;15.30;94.50
51863;DHT22;37900;52.996;6.278;2023-11-22T08:24:04;15.30;94.70
51863;DHT22;37900;52.996;6.278;2023-11-22T08:26:30;15.30;94.80
51863;DHT22;37900;52.996;6.278;2023-11-22T08:28:56;15.40;95.10
51863;DHT22;37900;52.996;6.278;2023-11-22T08:31:22;15.30;95.10
51863;DHT22;37900;52.996;6.278;2023-11-22T08:33:47;15.40;95.10
51863;DHT22;37900;52.996;6.278;2023-11-22T08:36:13;15.40;95.20
51863;DHT22;37900;52.996;6.278;2023-11-22T08:38:38;15.40;95.20
51863;DHT22;37900;52.996;6.278;2023-11-22T08:41:06;15.40;95.30
51863;DHT22;37900;52.996;6.278;2023-11-22T08:43:34;15.40;95.30
51863;DHT22;37900;52.996;6.278;2023-11-22T08:46:00;15.40;95.30
51863;DHT22;37900;52.996;6.278;2023-11-22T08:48:26;15.40;95.30
51863;DHT22;37900;52.996;6.278;2023-11-22T08:50:52;15.40;95.30
51863;DHT22;37900;52.996;6.278;2023-11-22T08:53:19;15.40;95.40
51863;DHT22;37900;52.996;6.278;2023-11-22T08:55:45;15.40;95.40
51863;DHT22;37900;52.996;6.278;2023-11-22T08:58:11;15.40;95.40
51863;DHT22;37900;52.996;6.278;2023-11-22T09:00:36;15.40;95.40
51863;DHT22;37900;52.996;6.278;2023-11-22T09:03:02;15.40;95.40
51863;DHT22;37900;52.996;6.278;2023-11-22T09:05:28;15.40;95.40
51863;DHT22;37900;52.996;6.278;2023-11-22T09:07:54;15.40;95.40
51863;DHT22;37900;52.996;6.278;2023-11-22T09:10:21;15.40;95.40
51863;DHT22;37900;52.996;6.278;2023-11-22T09:12:47;15.40;95.40
51863;DHT22;37900;52.996;6.278;2023-11-22T09:15:13;15.40;95.40
51863;DHT22;37900;52.996;6.278;2023-11-22T09:17:42;15.40;95.40
51863;DHT22;37900;52.996;6.278;2023-11-22T09:20:15;15.40;95.50
51863;DHT22;37900;52.996;6.278;2023-11-22T09:22:41;15.40;95.50
51863;DHT22;37900;52.996;6.278;2023-11-22T09:25:10;15.40;95.50
51863;DHT22;37900;52.996;6.278;2023-11-22T09:27:36;15.40;95.60
51863;DHT22;37900;52.996;6.278;2023-11-22T09:30:03;15.40;95.70
51863;DHT22;37900;52.996;6.278;2023-11-22T09:32:29;15.50;95.70
51863;DHT22;37900;52.996;6.278;2023-11-22T09:34:54;15.50;95.70
51863;DHT22;37900;52.996;6.278;2023-11-22T09:37:23;15.50;95.70
51863;DHT22;37900;52.996;6.278;2023-11-22T09:39:49;15.50;95.80
51863;DHT22;37900;52.996;6.278;2023-11-22T09:42:15;15.50;95.80
51863;DHT22;37900;52.996;6.278;2023-11-22T09:44:41;15.50;95.80
51863;DHT22;37900;52.996;6.278;2023-11-22T09:47:07;15.60;95.90
51863;DHT22;37900;52.996;6.278;2023-11-22T09:49:32;15.60;95.90
51863;DHT22;37900;52.996;6.278;2023-11-22T09:52:01;15.60;95.90
51863;DHT22;37900;52.996;6.278;2023-11-22T09:54:28;15.60;95.90
51863;DHT22;37900;52.996;6.278;2023-11-22T09:56:56;15.60;96.00
51863;DHT22;37900;52.996;6.278;2023-11-22T09:59:25;15.60;96.10
51863;DHT22;37900;52.996;6.278;2023-11-22T10:01:51;15.60;96.30
51863;DHT22;37900;52.996;6.278;2023-11-22T10:04:18;15.60;96.40
51863;DHT22;37900;52.996;6.278;2023-11-22T10:06:43;15.70;96.60
51863;DHT22;37900;52.996;6.278;2023-11-22T10:09:11;15.70;96.70
51863;DHT22;37900;52.996;6.278;2023-11-22T10:11:39;15.70;96.80
51863;DHT22;37900;52.996;6.278;2023-11-22T10:14:09;15.80;96.90
51863;DHT22;37900;52.996;6.278;2023-11-22T10:16:34;15.80;97.00
51863;DHT22;37900;52.996;6.278;2023-11-22T10:19:00;15.80;97.10
51863;DHT22;37900;52.996;6.278;2023-11-22T10:21:26;15.80;97.20
51863;DHT22;37900;52.996;6.278;2023-11-22T10:23:54;15.80;97.30
51863;DHT22;37900;52.996;6.278;2023-11-22T10:26:21;15.80;97.30
51863;DHT22;37900;52.996;6.278;2023-11-22T10:28:52;15.80;97.30
51863;DHT22;37900;52.996;6.278;2023-11-22T10:31:18;15.80;97.40
51863;DHT22;37900;52.996;6.278;2023-11-22T10:33:44;15.90;97.50
51863;DHT22;37900;52.996;6.278;2023-11-22T10:36:10;15.90;97.50
51863;DHT22;37900;52.996;6.278;2023-11-22T10:38:37;15.90;97.60
51863;DHT22;37900;52.996;6.278;2023-11-22T10:41:04;15.90;97.60
51863;DHT22;37900;52.996;6.278;2023-11-22T10:43:29;15.90;97.70
51863;DHT22;37900;52.996;6.278;2023-11-22T10:45:58;16.00;97.70
51863;DHT22;37900;52.996;6.278;2023-11-22T10:48:24;16.00;97.70
51863;DHT22;37900;52.996;6.278;2023-11-22T10:50:50;16.00;97.80
51863;DHT22;37900;52.996;6.278;2023-11-22T10:53:21;15.90;97.70
51863;DHT22;37900;52.996;6.278;2023-11-22T10:55:52;16.00;97.80
51863;DHT22;37900;52.996;6.278;2023-11-22T10:58:18;16.00;97.90
51863;DHT22;37900;52.996;6.278;2023-11-22T11:00:45;16.00;97.90
51863;DHT22;37900;52.996;6.278;2023-11-22T11:03:14;16.10;98.00
51863;DHT22;37900;52.996;6.278;2023-11-22T11:05:50;16.10;98.30
51863;DHT22;37900;52.996;6.278;2023-11-22T11:08:17;16.10;98.20
51863;DHT22;37900;52.996;6.278;2023-11-22T11:10:45;16.10;98.20
51863;DHT22;37900;52.996;6.278;2023-11-22T11:13:11;16.10;98.20
51863;DHT22;37900;52.996;6.278;2023-11-22T11:15:39;16.20;98.30
51863;DHT22;37900;52.996;6.278;2023-11-22T11:18:05;16.20;98.40
51863;DHT22;37900;52.996;6.278;2023-11-22T11:23:19;16.20;98.40
51863;DHT22;37900;52.996;6.278;2023-11-22T11:25:47;16.20;98.50
51863;DHT22;37900;52.996;6.278;2023-11-22T11:28:13;16.20;98.50
51863;DHT22;37900;52.996;6.278;2023-11-22T11:30:43;16.20;98.50
51863;DHT22;37900;52.996;6.278;2023-11-22T11:33:09;16.30;98.60
51863;DHT22;37900;52.996;6.278;2023-11-22T11:35:38;16.30;98.70
51863;DHT22;37900;52.996;6.278;2023-11-22T11:38:04;16.30;98.70
51863;DHT22;37900;52.996;6.278;2023-11-22T11:40:31;16.30;98.80
51863;DHT22;37900;52.996;6.278;2023-11-22T11:42:57;16.30;98.90
51863;DHT22;37900;52.996;6.278;2023-11-22T11:45:22;16.30;99.00
51863;DHT22;37900;52.996;6.278;2023-11-22T11:47:48;16.40;99.20
51863;DHT22;37900;52.996;6.278;2023-11-22T11:50:14;16.40;99.40
51863;DHT22;37900;52.996;6.278;2023-11-22T11:52:40;16.40;99.50
51863;DHT22;37900;52.996;6.278;2023-11-22T11:55:05;16.40;99.70
51863;DHT22;37900;52.996;6.278;2023-11-22T11:57:31;16.40;99.90
51863;DHT22;37900;52.996;6.278;2023-11-22T11:59:57;16.40;99.90
51863;DHT22;37900;52.996;6.278;2023-11-22T12:02:24;16.50;99.90
51863;DHT22;37900;52.996;6.278;2023-11-22T12:04:50;16.50;99.90
51863;DHT22;37900;52.996;6.278;2023-11-22T12:07:15;16.50;99.90
51863;DHT22;37900;52.996;6.278;2023-11-22T12:09:41;16.50;99.90
51863;DHT22;37900;52.996;6.278;2023-11-22T12:12:07;16.50;99.90
51863;DHT22;37900;52.996;6.278;2023-11-22T12:14:32;16.50;99.90
51863;DHT22;37900;52.996;6.278;2023-11-22T12:16:58;16.50;99.90
51863;DHT22;37900;52.996;6.278;2023-11-22T12:19:25;16.60;99.90
51863;DHT22;37900;52.996;6.278;2023-11-22T12:21:52;16.50;99.90
51863;DHT22;37900;52.996;6.278;2023-11-22T12:24:18;16.60;99.90
51863;DHT22;37900;52.996;6.278;2023-11-22T12:26:47;16.60;99.90
51863;DHT22;37900;52.996;6.278;2023-11-22T12:29:15;16.60;99.90
51863;DHT22;37900;52.996;6.278;2023-11-22T12:31:48;16.60;99.90
51863;DHT22;37900;52.996;6.278;2023-11-22T12:34:16;16.60;99.90
51863;DHT22;37900;52.996;6.278;2023-11-22T12:36:42;16.60;99.90
51863;DHT22;37900;52.996;6.278;2023-11-22T12:39:09;16.60;99.90
51863;DHT22;37900;52.996;6.278;2023-11-22T12:41:45;16.60;99.90
51863;DHT22;37900;52.996;6.278;2023-11-22T12:44:12;16.60;99.90
51863;DHT22;37900;52.996;6.278;2023-11-22T12:46:48;16.60;99.90
51863;DHT22;37900;52.996;6.278;2023-11-22T12:49:18;16.60;99.90
51863;DHT22;37900;52.996;6.278;2023-11-22T12:51:51;16.60;99.90
51863;DHT22;37900;52.996;6.278;2023-11-22T12:54:17;16.60;99.90
51863;DHT22;37900;52.996;6.278;2023-11-22T12:56:45;16.60;99.90
51863;DHT22;37900;52.996;6.278;2023-11-22T12:59:11;16.60;99.90
51863;DHT22;37900;52.996;6.278;2023-11-22T13:01:37;16.60;99.90
51863;DHT22;37900;52.996;6.278;2023-11-22T13:04:02;16.60;99.90
51863;DHT22;37900;52.996;6.278;2023-11-22T13:06:29;16.60;99.90
51863;DHT22;37900;52.996;6.278;2023-11-22T13:08:55;16.60;99.90
51863;DHT22;37900;52.996;6.278;2023-11-22T13:11:21;16.60;99.90
51863;DHT22;37900;52.996;6.278;2023-11-22T13:13:47;16.60;99.90
51863;DHT22;37900;52.996;6.278;2023-11-22T13:16:13;16.60;99.90
51863;DHT22;37900;52.996;6.278;2023-11-22T13:18:41;16.60;99.90
51863;DHT22;37900;52.996;6.278;2023-11-22T13:21:07;16.60;99.90
51863;DHT22;37900;52.996;6.278;2023-11-22T13:23:32;16.60;99.90
51863;DHT22;37900;52.996;6.278;2023-11-22T13:25:58;16.60;99.90
51863;DHT22;37900;52.996;6.278;2023-11-22T13:28:24;16.60;99.90
51863;DHT22;37900;52.996;6.278;2023-11-22T13:30:53;16.60;99.90
51863;DHT22;37900;52.996;6.278;2023-11-22T13:33:19;16.60;99.90
51863;DHT22;37900;52.996;6.278;2023-11-22T13:35:45;16.60;99.90
51863;DHT22;37900;52.996;6.278;2023-11-22T13:38:12;16.60;99.90
51863;DHT22;37900;52.996;6.278;2023-11-22T13:40:38;16.60;99.90
51863;DHT22;37900;52.996;6.278;2023-11-22T13:43:05;16.60;99.90
51863;DHT22;37900;52.996;6.278;2023-11-22T13:45:31;16.60;99.90
51863;DHT22;37900;52.996;6.278;2023-11-22T13:47:58;16.60;99.90
51863;DHT22;37900;52.996;6.278;2023-11-22T13:50:30;16.60;99.90
51863;DHT22;37900;52.996;6.278;2023-11-22T13:52:57;16.60;99.90
51863;DHT22;37900;52.996;6.278;2023-11-22T13:55:24;16.60;99.90
51863;DHT22;37900;52.996;6.278;2023-11-22T13:57:50;16.60;99.90
51863;DHT22;37900;52.996;6.278;2023-11-22T14:00:16;16.60;99.90
51863;DHT22;37900;52.996;6.278;2023-11-22T14:02:47;16.60;99.90
51863;DHT22;37900;52.996;6.278;2023-11-22T14:05:13;16.60;99.90
51863;DHT22;37900;52.996;6.278;2023-11-22T14:07:41;16.60;99.90
51863;DHT22;37900;52.996;6.278;2023-11-22T14:10:07;16.60;99.90
51863;DHT22;37900;52.996;6.278;2023-11-22T14:12:32;16.60;99.90
51863;DHT22;37900;52.996;6.278;2023-11-22T14:14:58;16.60;99.90
51863;DHT22;37900;52.996;6.278;2023-11-22T14:17:24;16.60;99.90
51863;DHT22;37900;52.996;6.278;2023-11-22T14:19:51;16.60;99.90
51863;DHT22;37900;52.996;6.278;2023-11-22T14:22:16;16.60;99.80
51863;DHT22;37900;52.996;6.278;2023-11-22T14:24:46;16.60;99.80
51863;DHT22;37900;52.996;6.278;2023-11-22T14:27:12;16.60;99.80
51863;DHT22;37900;52.996;6.278;2023-11-22T14:29:38;16.60;99.80
51863;DHT22;37900;52.996;6.278;2023-11-22T14:32:03;16.60;99.70
51863;DHT22;37900;52.996;6.278;2023-11-22T14:34:29;16.60;99.70
51863;DHT22;37900;52.996;6.278;2023-11-22T14:36:55;16.70;99.70
51863;DHT22;37900;52.996;6.278;2023-11-22T14:39:20;16.60;99.70
51863;DHT22;37900;52.996;6.278;2023-11-22T14:41:46;16.60;99.70
51863;DHT22;37900;52.996;6.278;2023-11-22T14:44:12;16.60;99.60
51863;DHT22;37900;52.996;6.278;2023-11-22T14:46:37;16.60;99.60
51863;DHT22;37900;52.996;6.278;2023-11-22T14:49:03;16.60;99.60
51863;DHT22;37900;52.996;6.278;2023-11-22T14:51:29;16.60;99.60
51863;DHT22;37900;52.996;6.278;2023-11-22T14:53:55;16.60;99.50
51863;DHT22;37900;52.996;6.278;2023-11-22T14:56:21;16.60;99.50
51863;DHT22;37900;52.996;6.278;2023-11-22T14:58:48;16.60;99.50
51863;DHT22;37900;52.996;6.278;2023-11-22T15:01:19;16.60;99.50
51863;DHT22;37900;52.996;6.278;2023-11-22T15:03:45;16.60;99.50
51863;DHT22;37900;52.996;6.278;2023-11-22T15:06:11;16.60;99.50
51863;DHT22;37900;52.996;6.278;2023-11-22T15:08:37;16.60;99.50
51863;DHT22;37900;52.996;6.278;2023-11-22T15:11:03;16.60;99.50
51863;DHT22;37900;52.996;6.278;2023-11-22T15:13:29;16.60;99.40
51863;DHT22;37900;52.996;6.278;2023-11-22T15:15:55;16.60;99.40
51863;DHT22;37900;52.996;6.278;2023-11-22T15:18:22;16.60;99.40
51863;DHT22;37900;52.996;6.278;2023-11-22T15:20:49;16.60;99.40
51863;DHT22;37900;52.996;6.278;2023-11-22T15:23:15;16.60;99.40
51863;DHT22;37900;52.996;6.278;2023-11-22T15:25:41;16.60;99.30
51863;DHT22;37900;52.996;6.278;2023-11-22T15:28:07;16.60;99.30